Time;durP1;ratioP1;P1;durP2;ratioP2;P2;SDS_P1;SDS_P2;PMS_P1;PMS_P2;Temp;Humidity;BMP_temperature;BMP_pressure;BME280_temperature;BME280_humidity;BME280_pressure;Samples;Min_cycle;Max_cycle;Signal;HPM_P1;HPM_P2
2022/06/10 00:00:29;;;;;;;8.35;3.70;;;;;;;17.18;64.38;99818.66;1703071;83;21150;-72
2022/06/10 00:02:56;;;;;;;4.70;3.40;;;;;;;17.14;64.72;99817.65;1703031;84;21511;-71
2022/06/10 00:05:27;;;;;;;6.87;3.77;;;;;;;17.07;64.90;99820.33;1703161;84;21119;-70
2022/06/10 00:07:53;;;;;;;;;;;;;;;17.03;65.70;99824.19;1705567;84;22216;-70
2022/06/10 00:10:22;;;;;;;10.75;3.20;;;;;;;16.96;66.06;99825.92;1702898;84;20182;-71
2022/06/10 00:12:50;;;;;;;4.70;3.53;;;;;;;16.91;66.47;99823.19;1739655;82;22659;-71
2022/06/10 00:15:18;;;;;;;9.13;3.58;;;;;;;16.85;66.87;99821.81;1750400;82;21031;-72
2022/06/10 00:17:45;;;;;;;6.58;3.55;;;;;;;16.81;67.20;99824.78;1750792;82;21066;-71
2022/06/10 00:20:15;;;;;;;7.67;3.67;;;;;;;16.77;67.47;99829.41;1750662;82;21034;-71
2022/06/10 00:22:41;;;;;;;7.72;3.87;;;;;;;16.71;68.03;99824.53;1750942;82;21122;-70
2022/06/10 00:25:08;;;;;;;6.80;3.67;;;;;;;16.65;68.25;99827.10;1750586;82;21110;-70
2022/06/10 00:27:36;;;;;;;6.80;3.22;;;;;;;16.60;68.51;99826.56;1750499;82;21102;-71
2022/06/10 00:30:05;;;;;;;5.97;3.30;;;;;;;16.56;68.88;99827.27;1750859;82;22081;-70
2022/06/10 00:32:32;;;;;;;5.83;3.65;;;;;;;16.51;69.14;99826.70;1750501;82;21019;-71
2022/06/10 00:34:58;;;;;;;6.12;3.75;;;;;;;16.47;69.62;99830.53;1750723;82;21050;-71
2022/06/10 00:37:26;;;;;;;6.60;3.50;;;;;;;16.43;69.83;99832.17;1750649;82;21517;-72
2022/06/10 00:39:54;;;;;;;6.17;3.98;;;;;;;16.38;70.35;99828.48;1750257;82;21046;-71
2022/06/10 00:42:20;;;;;;;9.00;4.28;;;;;;;16.32;71.49;99824.89;1750648;82;21069;-71
2022/06/10 00:44:52;;;;;;;7.12;3.92;;;;;;;16.26;72.17;99833.25;1750927;81;21113;-72
2022/06/10 00:47:35;;;;;;;7.28;4.10;;;;;;;16.21;72.60;99830.05;1750940;80;21551;-71
2022/06/10 00:50:28;;;;;;;8.05;4.00;;;;;;;16.15;72.89;99832.64;1751008;82;21130;-72
2022/06/10 00:53:00;;;;;;;8.75;3.58;;;;;;;16.09;73.24;99831.22;1750762;82;21058;-72
2022/06/10 00:55:30;;;;;;;9.08;3.87;;;;;;;16.02;74.91;99829.07;1751215;81;21074;-72
2022/06/10 00:58:03;;;;;;;6.50;4.20;;;;;;;15.93;75.22;99826.52;1751146;82;21058;-71
2022/06/10 01:00:30;;;;;;;7.90;4.42;;;;;;;15.88;75.18;99827.30;1748764;81;21001;-71
2022/06/10 01:02:57;;;;;;;6.87;3.87;;;;;;;15.84;75.38;99828.44;1747974;82;21557;-69
2022/06/10 01:05:26;;;;;;;8.25;4.00;;;;;;;15.80;75.45;99837.54;1747962;82;22166;-71
2022/06/10 01:08:03;;;;;;;7.72;4.42;;;;;;;15.77;76.10;99837.75;1748143;82;21084;-72
2022/06/10 01:10:52;;;;;;;4.72;3.60;;;;;;;15.73;76.40;99837.95;1748051;81;21105;-71
2022/06/10 01:13:33;;;;;;;6.75;4.15;;;;;;;15.68;76.71;99832.02;1719245;82;21078;-71
2022/06/10 01:16:28;;;;;;;8.40;3.60;;;;;;;15.64;76.61;99834.48;1681090;85;21090;-71
2022/06/10 01:19:51;;;;;;;8.15;3.83;;;;;;;15.61;76.39;99831.19;1717766;83;21087;-71
2022/06/10 01:22:41;;;;;;;6.33;3.92;;;;;;;15.58;76.47;99828.25;1718097;83;21118;-71
2022/06/10 01:25:33;;;;;;;6.13;3.80;;;;;;;15.57;76.62;99837.14;1687575;83;21113;-71
2022/06/10 01:28:14;;;;;;;7.33;4.53;;;;;;;15.55;76.83;99832.41;1718098;83;21158;-71
2022/06/10 01:31:19;;;;;;;6.28;3.72;;;;;;;15.55;76.62;99833.73;1718190;83;21153;-70
2022/06/10 01:34:31;;;;;;;7.22;3.77;;;;;;;15.53;76.46;99833.00;1718026;83;21102;-72
2022/06/10 01:37:18;;;;;;;9.68;4.37;;;;;;;15.51;76.60;99838.39;1718025;83;21055;-71
2022/06/10 01:39:58;;;;;;;5.42;3.98;;;;;;;15.52;76.69;99841.89;1710182;83;21071;-71
2022/06/10 01:42:32;;;;;;;5.62;3.83;;;;;;;15.50;76.96;99847.77;1710647;83;22125;-71
2022/06/10 01:45:35;;;;;;;5.87;4.17;;;;;;;15.49;77.20;99850.06;1710367;83;21795;-71
2022/06/10 01:48:17;;;;;;;9.15;4.30;;;;;;;15.50;77.25;99846.44;1710289;83;21119;-72
2022/06/10 01:50:53;;;;;;;11.97;4.12;;;;;;;15.49;77.07;99850.06;1710373;83;21611;-72
2022/06/10 01:53:31;;;;;;;9.83;4.10;;;;;;;15.49;77.16;99850.06;1710426;83;21064;-71
2022/06/10 01:56:13;;;;;;;10.98;4.47;;;;;;;15.49;77.28;99852.71;1710420;83;21078;-71
2022/06/10 01:58:48;;;;;;;10.10;4.17;;;;;;;15.50;77.37;99858.38;1710285;83;22014;-72
2022/06/10 02:01:26;;;;;;;7.80;4.22;;;;;;;15.50;77.48;99857.05;1719318;83;21126;-70
2022/06/10 02:04:01;;;;;;;8.40;4.33;;;;;;;15.50;77.18;99856.58;1720255;83;21129;-71
2022/06/10 02:06:58;;;;;;;5.75;4.30;;;;;;;15.51;77.22;99862.28;1712252;83;21082;-70
2022/06/10 02:09:34;;;;;;;6.75;4.03;;;;;;;15.52;77.07;99869.28;1720451;82;21070;-70
2022/06/10 02:12:07;;;;;;;8.95;4.37;;;;;;;15.53;77.33;99863.52;1719835;83;21249;-70
2022/06/10 02:14:40;;;;;;;11.48;4.50;;;;;;;15.55;77.31;99854.97;1690710;84;22057;-71
2022/06/10 02:17:07;;;;;;;6.47;4.22;;;;;;;15.58;77.65;99858.77;1689044;84;21115;-72
2022/06/10 02:19:46;;;;;;;6.83;4.30;;;;;;;15.60;78.00;99860.86;1719722;83;21060;-70
2022/06/10 02:22:27;;;;;;;6.17;3.95;;;;;;;15.62;77.64;99861.63;1719551;83;21620;-70
2022/06/10 02:24:57;;;;;;;;;;;;;;;15.65;77.48;99855.27;1722349;82;21298;-71
2022/06/10 02:27:29;;;;;;;6.37;4.22;;;;;;;15.70;77.40;99859.36;1719328;83;20476;-71
2022/06/10 02:30:16;;;;;;;10.93;5.33;;;;;;;15.70;77.40;99855.38;1719540;83;21588;-71
2022/06/10 02:32:44;;;;;;;8.20;5.25;;;;;;;15.73;77.28;99863.17;1715565;83;21026;-70
2022/06/10 02:35:12;;;;;;;7.83;4.92;;;;;;;15.79;77.33;99871.70;1719544;83;22123;-73
2022/06/10 02:38:21;;;;;;;11.25;4.92;;;;;;;15.84;77.26;99876.23;1719477;83;21153;-71
2022/06/10 02:41:00;;;;;;;8.60;5.15;;;;;;;15.94;76.95;99876.02;1719672;83;21096;-72
2022/06/10 02:43:50;;;;;;;9.23;5.25;;;;;;;15.94;76.95;99876.02;1719822;83;21030;-70
2022/06/10 02:46:34;;;;;;;14.03;6.50;;;;;;;16.06;76.89;99881.90;1719970;83;21057;-72
2022/06/10 02:49:11;;;;;;;9.50;5.78;;;;;;;16.19;76.38;99878.45;1719522;83;21065;-72
2022/06/10 02:51:38;;;;;;;10.82;6.65;;;;;;;16.33;75.97;99883.72;1719817;82;21268;-71
2022/06/10 02:54:17;;;;;;;10.50;6.17;;;;;;;16.50;75.01;99883.48;1719650;83;21049;-71
2022/06/10 02:56:44;;;;;;;12.73;6.72;;;;;;;16.68;74.23;99883.20;1719594;83;21057;-71
2022/06/10 03:02:12;;;;;;;17.00;7.05;;;;;;;16.98;72.90;99873.71;1682001;85;21113;-70
2022/06/10 03:05:11;;;;;;;10.25;7.10;;;;;;;17.15;72.25;99876.54;1716355;83;21171;-71
2022/06/10 03:08:04;;;;;;;14.30;6.75;;;;;;;17.28;71.42;99878.74;1716413;83;21097;-72
2022/06/10 03:10:44;;;;;;;15.83;7.30;;;;;;;17.45;70.72;99883.38;1716326;83;21538;-70
2022/06/10 03:13:52;;;;;;;13.38;6.30;;;;;;;17.60;70.21;99884.98;1689144;83;21071;-71
2022/06/10 03:17:04;;;;;;;16.85;8.08;;;;;;;17.73;69.68;99884.45;1685480;85;21067;-71
2022/06/10 03:20:01;;;;;;;15.78;7.45;;;;;;;17.89;69.05;99883.41;1686065;85;21705;-71
2022/06/10 03:22:52;;;;;;;12.45;8.38;;;;;;;18.06;68.61;99887.06;1686453;85;21063;-70
2022/06/10 03:25:30;;;;;;;15.88;8.63;;;;;;;18.22;67.89;99879.66;1686365;85;21122;-72
2022/06/10 03:28:12;;;;;;;21.75;9.58;;;;;;;18.38;67.21;99878.52;1686078;85;22190;-71
2022/06/10 03:30:49;;;;;;;14.28;9.28;;;;;;;18.53;66.21;99880.06;1652204;85;21146;-71
2022/06/10 03:33:42;;;;;;;16.93;9.68;;;;;;;18.68;65.24;99886.09;1686247;85;21576;-71
2022/06/10 03:36:14;;;;;;;18.85;9.63;;;;;;;18.82;65.00;99887.75;1686020;85;21613;-70
2022/06/10 03:38:44;;;;;;;11.88;8.55;;;;;;;18.98;64.69;99884.75;1685249;85;21086;-72
2022/06/10 03:41:25;;;;;;;15.85;9.50;;;;;;;19.13;64.57;99882.75;1686313;85;21158;-70
2022/06/10 03:43:54;;;;;;;18.85;9.90;;;;;;;19.31;63.50;99889.34;1686226;85;21680;-71
2022/06/10 03:46:23;;;;;;;18.57;9.70;;;;;;;19.47;63.03;99882.33;1686437;85;21857;-71
2022/06/10 03:48:50;;;;;;;18.00;9.48;;;;;;;19.67;62.09;99882.11;1686090;83;21595;-71
2022/06/10 03:51:18;;;;;;;17.45;9.83;;;;;;;19.83;61.39;99882.62;1686214;85;21264;-71
2022/06/10 03:53:45;;;;;;;15.55;9.75;;;;;;;19.98;60.77;99880.53;1686462;85;21047;-71
2022/06/10 03:56:12;;;;;;;15.65;9.00;;;;;;;20.12;60.41;99880.75;1686112;85;21067;-71
2022/06/10 03:58:40;;;;;;;19.95;9.60;;;;;;;20.26;60.17;99879.14;1686335;85;21647;-71
2022/06/10 04:01:07;;;;;;;17.52;9.93;;;;;;;20.43;59.75;99879.58;1704142;83;21119;-70
2022/06/10 04:03:34;;;;;;;17.82;9.73;;;;;;;20.60;58.95;99880.42;1716303;83;21071;-70
2022/06/10 04:06:00;;;;;;;29.60;10.50;;;;;;;20.77;58.75;99881.69;1716139;83;21603;-70
2022/06/10 04:08:27;;;;;;;16.60;9.68;;;;;;;20.91;57.92;99882.73;1716453;83;21100;-72
2022/06/10 04:10:55;;;;;;;19.35;10.38;;;;;;;21.05;57.64;99878.89;1716427;83;21261;-72
2022/06/10 04:13:22;;;;;;;22.50;10.55;;;;;;;21.22;56.85;99881.97;1747081;82;21185;-71
2022/06/10 04:15:49;;;;;;;18.45;10.32;;;;;;;21.38;56.57;99884.52;1747952;82;21115;-71
2022/06/10 04:18:15;;;;;;;19.52;10.58;;;;;;;21.54;56.49;99889.44;1747682;82;21532;-71
2022/06/10 04:20:43;;;;;;;24.43;10.18;;;;;;;21.72;55.52;99890.17;1747872;82;21087;-71
2022/06/10 04:23:10;;;;;;;26.48;10.98;;;;;;;21.90;55.16;99888.55;1747935;82;21555;-71
2022/06/10 04:25:38;;;;;;;20.72;9.48;;;;;;;22.11;54.78;99892.50;1748048;82;21335;-72
2022/06/10 04:28:05;;;;;;;20.92;11.15;;;;;;;22.35;54.01;99892.16;1747933;82;21084;-71
2022/06/10 04:30:37;;;;;;;21.15;10.90;;;;;;;22.54;53.56;99894.01;1748166;82;21537;-71
2022/06/10 04:33:05;;;;;;;19.85;11.75;;;;;;;22.71;52.36;99901.89;1747914;82;21067;-72
2022/06/10 04:35:32;;;;;;;21.52;11.48;;;;;;;22.86;51.77;99895.59;1747648;82;21975;-72
2022/06/10 04:38:03;;;;;;;23.38;12.45;;;;;;;22.97;51.52;99904.00;1718455;82;21075;-73
2022/06/10 04:40:30;;;;;;;18.30;10.95;;;;;;;23.14;50.77;99913.20;1747661;82;21091;-71
2022/06/10 04:42:58;;;;;;;21.12;12.40;;;;;;;23.34;50.40;99916.72;1747614;82;21059;-71
2022/06/10 04:45:30;;;;;;;29.37;13.35;;;;;;;23.56;49.59;99912.36;1748149;82;21540;-73
2022/06/10 04:47:58;;;;;;;27.48;13.38;;;;;;;23.76;48.91;99917.70;1747835;80;21830;-72
2022/06/10 04:50:27;;;;;;;30.62;13.88;;;;;;;23.91;48.32;99912.20;1748114;82;21685;-72
2022/06/10 04:52:53;;;;;;;24.00;12.45;;;;;;;24.05;48.64;99917.08;1747899;82;21099;-71
2022/06/10 04:55:20;;;;;;;22.80;13.32;;;;;;;24.18;48.08;99912.72;1747850;82;21028;-72
2022/06/10 04:57:47;;;;;;;31.17;14.43;;;;;;;24.30;47.77;99918.73;1747791;82;21051;-71
2022/06/10 05:00:20;;;;;;;29.57;14.03;;;;;;;24.41;47.73;99922.57;1747065;82;21103;-70
2022/06/10 05:02:47;;;;;;;22.37;13.83;;;;;;;24.54;47.27;99926.77;1742353;82;21025;-72
2022/06/10 05:05:14;;;;;;;30.17;12.90;;;;;;;24.67;46.96;99927.25;1742442;82;22119;-71
2022/06/10 05:07:41;;;;;;;22.62;13.50;;;;;;;24.84;46.71;99933.13;1742401;82;21068;-71
2022/06/10 05:10:08;;;;;;;28.15;13.15;;;;;;;25.04;46.11;99932.47;1742472;82;21081;-71
2022/06/10 05:12:35;;;;;;;21.02;13.18;;;;;;;25.26;45.93;99936.58;1742751;82;21783;-73
2022/06/10 05:15:03;;;;;;;18.65;12.30;;;;;;;25.47;45.03;99936.22;1742937;82;21075;-72
2022/06/10 05:17:30;;;;;;;27.30;13.75;;;;;;;25.60;45.46;99934.44;1742499;82;21035;-72
2022/06/10 05:19:56;;;;;;;27.82;13.53;;;;;;;25.84;44.67;99935.61;1742432;82;21520;-71
2022/06/10 05:22:23;;;;;;;29.15;14.07;;;;;;;26.06;44.27;99931.02;1742498;82;21066;-72
2022/06/10 05:24:50;;;;;;;29.42;13.85;;;;;;;26.29;43.95;99939.37;1742398;82;21550;-72
2022/06/10 05:27:16;;;;;;;33.25;15.58;;;;;;;26.50;43.10;99935.39;1742562;82;21628;-72
2022/06/10 05:29:43;;;;;;;26.20;14.83;;;;;;;26.65;42.24;99943.75;1742480;82;21071;-72
2022/06/10 05:32:10;;;;;;;30.80;14.98;;;;;;;26.72;42.06;99938.86;1742183;82;21567;-71
2022/06/10 05:34:46;;;;;;;25.40;15.43;;;;;;;26.82;42.26;99940.05;1742549;82;22198;-73
2022/06/10 05:37:20;;;;;;;29.63;15.13;;;;;;;26.95;41.46;99940.41;1742483;82;21354;-72
2022/06/10 05:39:47;;;;;;;23.60;15.43;;;;;;;27.05;41.43;99942.11;1742468;82;21042;-71
2022/06/10 05:42:13;;;;;;;25.77;15.50;;;;;;;27.13;40.61;99944.31;1742610;82;22279;-72
2022/06/10 05:44:46;;;;;;;31.27;16.40;;;;;;;27.22;40.75;99948.38;1742580;82;21586;-73
2022/06/10 05:47:19;;;;;;;26.85;15.30;;;;;;;27.27;40.79;99949.59;1742489;81;21104;-72
2022/06/10 05:49:48;;;;;;;24.75;15.40;;;;;;;27.32;40.52;99951.78;1742231;82;22060;-71
2022/06/10 05:52:16;;;;;;;22.22;15.32;;;;;;;27.44;40.38;99957.69;1742413;82;21031;-71
2022/06/10 05:54:45;;;;;;;27.70;14.95;;;;;;;27.55;40.09;99957.34;1742630;82;21046;-72
2022/06/10 05:57:11;;;;;;;47.80;16.20;;;;;;;27.60;40.33;99957.66;1742317;82;21091;-72
2022/06/10 05:59:38;;;;;;;42.38;16.70;;;;;;;27.81;40.02;99963.39;1742531;82;21055;-72
2022/06/10 06:02:09;;;;;;;24.95;15.48;;;;;;;28.05;40.23;99958.95;1742360;82;21729;-73
2022/06/10 06:04:36;;;;;;;31.68;16.07;;;;;;;28.21;38.60;99962.95;1742525;82;21067;-73
2022/06/10 06:07:04;;;;;;;27.35;16.02;;;;;;;28.31;38.55;99960.03;1742815;82;21055;-71
2022/06/10 06:09:30;;;;;;;23.35;15.95;;;;;;;28.52;38.43;99963.51;1742452;82;21043;-72
2022/06/10 06:11:57;;;;;;;35.20;16.10;;;;;;;28.74;37.48;99964.59;1742484;82;21612;-73
2022/06/10 06:14:26;;;;;;;28.05;16.82;;;;;;;28.84;37.47;99971.13;1721409;82;21227;-71
2022/06/10 06:16:57;;;;;;;28.52;16.50;;;;;;;28.90;37.43;99970.41;1742687;82;21060;-72
2022/06/10 06:19:24;;;;;;;32.78;15.90;;;;;;;29.01;37.28;99963.22;1742512;82;22167;-71
2022/06/10 06:21:51;;;;;;;25.62;16.27;;;;;;;29.21;36.97;99965.47;1742861;82;21037;-72
2022/06/10 06:24:18;;;;;;;28.90;16.90;;;;;;;29.47;36.35;99965.93;1742597;82;21060;-72
2022/06/10 06:26:45;;;;;;;25.32;14.55;;;;;;;29.77;35.69;99959.23;1742695;82;21848;-72
2022/06/10 06:29:12;;;;;;;26.40;14.40;;;;;;;29.90;35.22;99964.83;1742373;82;21021;-72
2022/06/10 06:31:40;;;;;;;25.23;15.40;;;;;;;30.11;33.85;99961.88;1742469;82;21064;-72
2022/06/10 06:34:07;;;;;;;25.95;15.23;;;;;;;30.11;33.85;99961.88;1742688;82;21089;-73
2022/06/10 06:36:44;;;;;;;22.70;15.03;;;;;;;30.45;33.62;99964.03;1742646;82;21517;-72
2022/06/10 06:39:14;;;;;;;21.20;15.28;;;;;;;30.45;33.62;99964.03;1742720;82;21315;-73
2022/06/10 06:41:41;;;;;;;21.85;15.00;;;;;;;30.65;33.67;99958.02;1742552;82;21076;-72
2022/06/10 06:44:08;;;;;;;30.05;15.48;;;;;;;30.97;32.50;99965.36;1742701;82;21048;-72
2022/06/10 06:46:37;;;;;;;24.65;13.90;;;;;;;31.18;32.33;99971.34;1742299;81;21596;-72
2022/06/10 06:49:06;;;;;;;23.27;11.50;;;;;;;31.29;31.61;99966.72;1742809;82;21600;-71
2022/06/10 06:51:34;;;;;;;20.68;12.88;;;;;;;31.35;28.83;99971.37;1742655;82;21803;-72
2022/06/10 06:54:01;;;;;;;24.18;12.75;;;;;;;31.26;28.88;99971.20;1742780;82;21125;-71
2022/06/10 06:56:29;;;;;;;25.68;13.93;;;;;;;31.11;29.75;99971.28;1742362;82;21050;-72
2022/06/10 06:58:56;;;;;;;25.55;12.65;;;;;;;30.92;29.63;99970.89;1742468;82;21070;-71
2022/06/10 07:01:23;;;;;;;33.15;14.55;;;;;;;30.82;29.84;99972.20;1742283;82;21105;-71
2022/06/10 07:03:50;;;;;;;24.47;12.93;;;;;;;31.04;31.02;99971.22;1742515;82;21276;-72
2022/06/10 07:06:17;;;;;;;22.37;12.33;;;;;;;31.47;29.09;99978.03;1742565;82;21096;-73
2022/06/10 07:08:45;;;;;;;20.72;11.18;;;;;;;31.59;28.51;99976.10;1742456;82;21073;-72
2022/06/10 07:11:12;;;;;;;20.57;12.30;;;;;;;31.69;28.57;99976.61;1740430;82;22131;-71
2022/06/10 07:13:39;;;;;;;20.32;12.75;;;;;;;32.03;28.62;99966.82;1707117;84;21142;-72
2022/06/10 07:16:08;;;;;;;19.60;11.70;;;;;;;32.34;28.55;99971.25;1707005;84;21592;-71
2022/06/10 07:18:35;;;;;;;20.27;11.30;;;;;;;32.39;26.52;99967.42;1707025;84;21067;-73
2022/06/10 07:21:01;;;;;;;20.82;11.55;;;;;;;32.31;27.33;99973.03;1707218;84;21082;-72
2022/06/10 07:23:29;;;;;;;22.95;11.80;;;;;;;32.35;26.82;99976.20;1706760;84;21129;-72
2022/06/10 07:25:56;;;;;;;25.08;11.48;;;;;;;32.13;26.75;99976.81;1706919;84;21143;-72
2022/06/10 07:28:23;;;;;;;21.55;10.90;;;;;;;32.08;27.02;99973.86;1707013;84;21126;-73
2022/06/10 07:30:50;;;;;;;16.12;11.40;;;;;;;32.05;26.66;99981.05;1706875;84;22097;-71
2022/06/10 07:33:17;;;;;;;22.73;11.97;;;;;;;32.13;27.39;99973.56;1706912;84;21088;-71
2022/06/10 07:35:45;;;;;;;17.85;11.25;;;;;;;32.20;27.29;99983.14;1706966;84;21078;-71
2022/06/10 07:38:12;;;;;;;21.33;11.65;;;;;;;32.13;27.05;99979.02;1706915;84;21071;-73
2022/06/10 07:43:32;;;;;;;21.50;12.82;;;;;;;32.40;27.03;99973.17;1707095;84;21057;-71
2022/06/10 07:46:00;;;;;;;26.23;13.18;;;;;;;32.61;25.26;99978.22;1707011;82;21203;-72
2022/06/10 07:48:26;;;;;;;23.95;13.32;;;;;;;32.69;25.39;99972.56;1707015;84;21083;-72
2022/06/10 07:50:53;;;;;;;29.87;12.63;;;;;;;32.99;25.26;99966.77;1706892;84;21079;-71
2022/06/10 07:53:20;;;;;;;24.12;13.93;;;;;;;33.08;25.02;99977.83;1707099;84;21249;-72
2022/06/10 07:55:47;;;;;;;22.32;12.28;;;;;;;32.76;24.70;99977.55;1707149;84;21110;-71
2022/06/10 07:58:15;;;;;;;22.60;12.40;;;;;;;32.53;25.16;99979.25;1706860;84;21631;-72
2022/06/10 08:00:42;;;;;;;19.23;12.82;;;;;;;32.67;25.23;99977.41;1707140;84;22210;-72
2022/06/10 08:03:09;;;;;;;19.20;13.22;;;;;;;32.91;24.09;99975.16;1706915;83;21087;-73
2022/06/10 08:05:36;;;;;;;24.75;13.25;;;;;;;33.05;24.25;99979.62;1707084;84;21142;-71
2022/06/10 08:08:04;;;;;;;23.40;12.10;;;;;;;33.15;24.39;99976.48;1706815;84;21066;-71
2022/06/10 08:10:35;;;;;;;22.67;11.20;;;;;;;33.38;24.45;99976.07;1706936;84;21079;-72
2022/06/10 08:13:03;;;;;;;19.98;9.75;;;;;;;33.66;23.05;99990.06;1736653;82;21539;-72
2022/06/10 08:16:18;;;;;;;24.07;11.10;;;;;;;33.03;23.58;99976.22;1814365;79;22696;-72
2022/06/10 08:18:46;;;;;;;29.52;10.53;;;;;;;32.96;24.16;99976.73;1787735;80;21576;-72
2022/06/10 08:24:01;;;;;;;16.70;9.40;;;;;;;32.97;23.49;99977.07;1787262;80;21060;-72
2022/06/10 08:26:28;;;;;;;15.95;8.75;;;;;;;33.05;23.53;99975.52;1787283;80;21080;-72
2022/06/10 08:28:54;;;;;;;14.58;8.83;;;;;;;32.93;23.56;99977.16;1787277;80;21076;-72
2022/06/10 08:31:21;;;;;;;15.28;8.40;;;;;;;32.80;24.00;99973.86;1787865;80;21632;-72
2022/06/10 08:33:48;;;;;;;16.45;8.85;;;;;;;32.84;24.64;99970.22;1787313;80;21184;-72
2022/06/10 08:36:15;;;;;;;12.07;7.72;;;;;;;32.95;23.55;99973.70;1787328;80;20926;-72
2022/06/10 08:38:42;;;;;;;16.37;8.00;;;;;;;33.05;23.48;99976.89;1787535;80;21545;-75
2022/06/10 08:41:32;;;;;;;14.00;6.53;;;;;;;33.46;23.70;99970.41;1787464;80;21488;-73
2022/06/10 08:44:30;;;;;;;24.77;6.87;;;;;;;33.81;22.24;99979.23;1787718;80;21005;-72
2022/06/10 08:47:17;;;;;;;17.30;6.60;;;;;;;33.31;22.72;99980.69;1785243;80;21788;-73
2022/06/10 08:49:58;;;;;;;13.62;6.00;;;;;;;32.89;22.98;99977.25;1785306;80;21498;-72
2022/06/10 08:52:53;;;;;;;14.93;5.50;;;;;;;32.79;23.46;99983.94;1785104;80;21005;-73
2022/06/10 08:55:31;;;;;;;16.23;5.80;;;;;;;33.19;22.98;99982.67;1757097;80;21060;-72
2022/06/10 08:58:02;;;;;;;11.25;5.42;;;;;;;33.16;22.81;99980.91;1785058;80;21586;-73
2022/06/10 09:00:32;;;;;;;9.80;5.10;;;;;;;33.18;23.24;99987.83;1785333;80;21085;-73
2022/06/10 09:03:05;;;;;;;8.63;5.10;;;;;;;33.15;22.75;99973.75;1756888;80;21029;-72
2022/06/10 09:05:43;;;;;;;8.25;4.87;;;;;;;33.01;22.69;99983.27;1785404;80;21044;-73
2022/06/10 09:08:30;;;;;;;9.15;4.90;;;;;;;32.88;23.01;99987.86;1781041;80;21035;-73
2022/06/10 09:11:10;;;;;;;9.73;5.85;;;;;;;32.81;23.58;99977.76;1785612;80;21060;-73
2022/06/10 09:13:39;;;;;;;;;;;;;;;32.86;23.37;99980.40;1787896;80;21287;-71
2022/06/10 09:16:27;;;;;;;11.08;5.55;;;;;;;32.51;24.11;99980.47;1778681;80;20508;-73
2022/06/10 09:19:36;;;;;;;10.13;5.80;;;;;;;32.30;24.13;99979.54;1777228;80;21139;-73
2022/06/10 09:22:43;;;;;;;7.87;5.40;;;;;;;32.27;24.06;99974.47;1777256;80;21570;-71
2022/06/10 09:25:26;;;;;;;10.23;5.72;;;;;;;32.47;24.18;99973.73;1768001;80;21037;-73
2022/06/10 09:27:57;;;;;;;13.62;5.22;;;;;;;32.40;24.12;99993.62;1776432;80;21963;-72
2022/06/10 09:30:58;;;;;;;15.00;5.15;;;;;;;32.19;24.76;99981.47;1776458;80;21072;-71
2022/06/10 09:33:55;;;;;;;10.82;5.03;;;;;;;32.20;24.36;99984.50;1776679;80;21535;-71
2022/06/10 09:36:45;;;;;;;10.50;4.95;;;;;;;32.06;24.30;99985.47;1776598;80;21609;-72
2022/06/10 09:42:37;;;;;;;12.70;5.72;;;;;;;32.22;24.21;99988.39;1776628;80;21135;-73
2022/06/10 09:45:35;;;;;;;9.68;6.05;;;;;;;32.03;24.07;99991.33;1776562;80;21018;-71
2022/06/10 09:48:33;;;;;;;11.38;6.28;;;;;;;31.78;24.03;99991.75;1776374;80;21017;-73
2022/06/10 09:51:33;;;;;;;10.20;6.08;;;;;;;31.72;24.55;99995.27;1776108;80;21013;-71
2022/06/10 09:54:24;;;;;;;;;;;;;;;32.04;23.72;100001.17;1779162;80;21092;-73
2022/06/10 09:56:56;;;;;;;8.35;5.85;;;;;;;32.40;23.64;99984.61;1776682;80;22292;-73
2022/06/10 09:59:44;;;;;;;12.75;5.83;;;;;;;32.87;22.59;99992.97;1776507;80;21041;-72
2022/06/10 10:02:43;;;;;;;10.68;6.20;;;;;;;33.13;22.23;99987.62;1776600;80;21037;-73
2022/06/10 10:05:33;;;;;;;8.23;5.33;;;;;;;33.35;21.78;99981.95;1776453;80;21060;-73
2022/06/10 10:08:19;;;;;;;10.93;6.40;;;;;;;33.71;21.56;99991.13;1776654;80;20993;-72
2022/06/10 10:10:56;;;;;;;9.90;6.50;;;;;;;33.88;21.56;99987.95;1776577;80;21044;-73
2022/06/10 10:14:00;;;;;;;10.98;6.45;;;;;;;34.20;21.23;99984.85;1776965;80;21125;-73
2022/06/10 10:16:58;;;;;;;14.40;6.97;;;;;;;34.57;21.09;99978.30;1770424;80;21065;-73
2022/06/10 10:20:04;;;;;;;14.70;6.78;;;;;;;35.02;20.50;99976.92;1770609;80;21101;-73
2022/06/10 10:23:05;;;;;;;11.95;6.42;;;;;;;35.09;19.62;99981.82;1770870;80;21060;-72
2022/06/10 10:25:32;;;;;;;13.43;7.42;;;;;;;34.83;19.90;99976.83;1770754;80;21749;-73
2022/06/10 10:27:58;;;;;;;15.40;7.33;;;;;;;34.75;20.29;99984.45;1770748;81;21037;-72
2022/06/10 10:30:40;;;;;;;18.40;8.65;;;;;;;34.65;20.17;99990.39;1771159;81;21080;-72
2022/06/10 10:33:12;;;;;;;14.87;7.15;;;;;;;34.20;20.59;99995.78;1770790;81;21562;-72
2022/06/10 10:35:45;;;;;;;12.25;8.08;;;;;;;33.64;21.39;99984.30;1770748;81;21076;-72
2022/06/10 10:38:16;;;;;;;11.93;7.30;;;;;;;33.56;21.51;99981.73;1770534;81;21582;-72
2022/06/10 10:40:47;;;;;;;17.98;8.65;;;;;;;33.85;20.72;99987.31;1770780;80;21501;-73
2022/06/10 10:43:27;;;;;;;19.40;8.38;;;;;;;33.93;20.24;99990.34;1770957;81;21525;-73
2022/06/10 10:46:07;;;;;;;18.13;9.03;;;;;;;33.59;20.63;99986.83;1771096;81;21029;-73
2022/06/10 10:48:44;;;;;;;15.48;8.80;;;;;;;33.50;20.85;99983.97;1771003;81;21028;-73
2022/06/10 10:51:16;;;;;;;19.40;9.63;;;;;;;33.61;21.23;99983.37;1771020;81;21204;-72
2022/06/10 10:53:47;;;;;;;16.82;9.30;;;;;;;33.68;21.08;99983.86;1770759;80;21027;-73
2022/06/10 10:56:14;;;;;;;14.47;8.13;;;;;;;33.76;20.06;99983.66;1770879;80;21068;-73
2022/06/10 10:58:52;;;;;;;16.73;9.40;;;;;;;33.83;20.17;99971.66;1749161;81;21092;-72
2022/06/10 11:01:44;;;;;;;16.87;9.78;;;;;;;33.81;19.75;99974.30;1770747;81;21581;-72
2022/06/10 11:04:19;;;;;;;19.45;10.32;;;;;;;33.89;19.89;99977.32;1770641;81;21114;-73
2022/06/10 11:06:46;;;;;;;17.27;10.18;;;;;;;33.76;20.54;99979.56;1769765;80;21093;-73
2022/06/10 11:09:23;;;;;;;15.48;10.00;;;;;;;33.82;20.75;99970.00;1749303;81;20990;-72
2022/06/10 11:11:50;;;;;;;19.20;9.73;;;;;;;33.98;21.14;99974.17;1760510;81;21522;-74
2022/06/10 11:14:32;;;;;;;16.73;9.45;;;;;;;34.14;20.28;99963.84;1719561;82;20993;-72
2022/06/10 11:17:16;;;;;;;18.07;10.18;;;;;;;34.21;20.24;99968.75;1744999;82;21602;-72
2022/06/10 11:19:48;;;;;;;19.52;10.80;;;;;;;34.16;19.98;99970.77;1745857;82;21032;-73
2022/06/10 11:22:20;;;;;;;21.02;11.45;;;;;;;34.11;20.05;99969.75;1740797;82;21104;-72
2022/06/10 11:24:50;;;;;;;18.07;9.93;;;;;;;33.71;20.31;99967.08;1745869;82;21113;-73
2022/06/10 11:27:37;;;;;;;20.52;10.32;;;;;;;33.23;20.79;99968.94;1745688;82;21061;-73
2022/06/10 11:30:22;;;;;;;20.40;11.08;;;;;;;32.95;21.33;99966.89;1751439;80;21119;-72
2022/06/10 11:33:01;;;;;;;16.93;10.35;;;;;;;32.79;21.46;99964.85;1776376;80;21053;-74
2022/06/10 11:35:38;;;;;;;15.58;10.48;;;;;;;32.70;21.29;99959.27;1776077;80;21054;-73
2022/06/10 11:38:24;;;;;;;18.12;10.58;;;;;;;32.67;21.87;99958.33;1776945;80;21482;-73
2022/06/10 11:40:54;;;;;;;15.78;9.75;;;;;;;32.89;21.32;99952.70;1737054;82;22227;-73
2022/06/10 11:43:27;;;;;;;;;;;;;;;33.08;20.78;99950.55;1723866;83;21096;-73
2022/06/10 11:46:02;;;;;;;20.75;10.98;;;;;;;32.92;21.67;99952.28;1720817;83;20186;-72
2022/06/10 11:48:56;;;;;;;15.63;10.20;;;;;;;32.48;21.84;99953.07;1737259;82;21030;-74
2022/06/10 11:51:38;;;;;;;16.93;10.30;;;;;;;32.46;21.70;99939.33;1736873;82;21050;-73
2022/06/10 11:54:34;;;;;;;20.12;11.28;;;;;;;32.57;21.32;99945.59;1737219;82;21059;-72
2022/06/10 12:00:31;;;;;;;19.55;10.03;;;;;;;32.47;21.07;99951.94;1736796;82;21062;-72
2022/06/10 12:03:10;;;;;;;16.50;10.35;;;;;;;32.56;21.45;99948.02;1776203;80;20986;-74
2022/06/10 12:05:43;;;;;;;24.85;11.12;;;;;;;32.90;21.31;99944.83;1776406;80;21024;-73
2022/06/10 12:08:52;;;;;;;23.15;11.10;;;;;;;33.06;21.14;99945.85;1776539;80;21065;-72
2022/06/10 12:11:38;;;;;;;18.65;11.25;;;;;;;33.07;21.02;99944.79;1776926;80;21911;-72
2022/06/10 12:14:29;;;;;;;15.55;9.95;;;;;;;32.89;20.02;99943.99;1776795;80;21683;-74
2022/06/10 12:17:36;;;;;;;20.55;10.60;;;;;;;32.57;20.22;99934.69;1769626;80;21202;-73